createdAt,value
2018-03-24T00:01:34.080Z,14.52
2018-03-24T00:04:01.627Z,13.52
2018-03-24T00:06:29.047Z,13.90
2018-03-24T00:08:56.767Z,13.07
2018-03-24T00:11:24.201Z,13.18
2018-03-24T00:13:51.740Z,14.35
2018-03-24T00:16:19.215Z,14.63
2018-03-24T00:18:46.625Z,14.48
2018-03-24T00:21:14.057Z,13.52
2018-03-24T00:23:41.492Z,14.73
2018-03-24T00:26:09.020Z,13.60
2018-03-24T00:28:36.650Z,13.13
2018-03-24T00:31:04.151Z,14.95
2018-03-24T00:33:31.599Z,12.57
2018-03-24T00:35:59.048Z,14.07
2018-03-24T00:38:26.632Z,12.68
2018-03-24T00:40:54.287Z,12.75
2018-03-24T00:43:21.724Z,13.40
2018-03-24T00:45:49.188Z,13.13
2018-03-24T00:48:16.627Z,12.25
2018-03-24T00:50:44.048Z,11.98
2018-03-24T00:53:12.272Z,11.68
2018-03-24T00:55:39.865Z,12.48
2018-03-24T00:58:07.369Z,11.00
2018-03-24T01:00:34.799Z,10.48
2018-03-24T01:03:02.216Z,9.95
2018-03-24T01:05:29.759Z,11.00
2018-03-24T01:07:57.199Z,10.65
2018-03-24T01:10:24.645Z,13.07
2018-03-24T01:12:52.089Z,11.27
2018-03-24T01:15:19.681Z,14.80
2018-03-24T01:17:47.137Z,13.85
2018-03-24T01:20:14.582Z,12.20
2018-03-24T01:22:42.008Z,13.50
2018-03-24T01:25:09.445Z,13.55
2018-03-24T01:27:36.956Z,14.40
2018-03-24T01:30:04.390Z,14.27
2018-03-24T01:32:31.812Z,13.13
2018-03-24T01:34:59.328Z,14.73
2018-03-24T01:37:26.840Z,14.32
2018-03-24T01:39:54.552Z,15.07
2018-03-24T01:42:21.978Z,17.25
2018-03-24T01:44:49.395Z,14.07
2018-03-24T01:47:17.721Z,14.40
2018-03-24T01:49:45.800Z,13.27
2018-03-24T01:52:13.368Z,13.50
2018-03-24T01:54:41.124Z,12.98
2018-03-24T01:57:08.560Z,12.85
2018-03-24T01:59:35.988Z,13.90
2018-03-24T02:02:03.422Z,14.65
2018-03-24T02:04:31.868Z,13.45
2018-03-24T02:06:59.303Z,14.77
2018-03-24T02:09:26.789Z,14.10
2018-03-24T02:11:54.615Z,14.68
2018-03-24T02:14:22.317Z,13.32
2018-03-24T02:16:49.956Z,14.55
2018-03-24T02:19:17.449Z,14.00
2018-03-24T02:21:44.878Z,14.77
2018-03-24T02:24:12.388Z,15.68
2018-03-24T02:26:39.901Z,15.10
2018-03-24T02:29:07.354Z,17.23
2018-03-24T02:31:34.984Z,15.05
2018-03-24T02:34:02.580Z,17.85
2018-03-24T02:36:30.006Z,15.15
2018-03-24T02:38:57.437Z,16.35
2018-03-24T02:41:24.870Z,14.93
2018-03-24T02:43:52.396Z,15.15
2018-03-24T02:46:19.868Z,15.95
2018-03-24T02:48:47.319Z,16.50
2018-03-24T02:51:14.773Z,17.25
2018-03-24T02:53:42.536Z,15.15
2018-03-24T02:56:10.190Z,16.85
2018-03-24T02:58:37.756Z,17.42
2018-03-24T03:01:05.197Z,16.40
2018-03-24T03:03:32.641Z,16.73
2018-03-24T03:06:00.121Z,17.08
2018-03-24T03:08:27.580Z,17.30
2018-03-24T03:10:55.343Z,17.00
2018-03-24T03:13:22.988Z,17.50
2018-03-24T03:15:50.564Z,17.67
2018-03-24T03:18:18.204Z,17.27
2018-03-24T03:20:45.680Z,15.65
2018-03-24T03:23:13.244Z,15.90
2018-03-24T03:25:40.686Z,16.02
2018-03-24T03:28:08.152Z,16.98
2018-03-24T03:30:40.396Z,16.95
2018-03-24T03:33:07.894Z,17.12
2018-03-24T03:35:35.436Z,16.73
2018-03-24T03:38:03.060Z,17.55
2018-03-24T03:40:30.495Z,16.65
2018-03-24T03:42:58.113Z,15.02
2018-03-24T03:45:25.751Z,17.90
2018-03-24T03:47:53.236Z,15.63
2018-03-24T03:50:20.788Z,16.15
2018-03-24T03:52:48.218Z,18.08
2018-03-24T03:55:15.648Z,17.17
2018-03-24T03:57:43.064Z,17.05
2018-03-24T04:00:10.500Z,17.40
2018-03-24T04:02:38.064Z,16.65
2018-03-24T04:05:05.528Z,18.10
2018-03-24T04:07:33.291Z,18.08
2018-03-24T04:10:00.924Z,16.45
2018-03-24T04:12:28.376Z,15.85
2018-03-24T04:14:55.969Z,16.17
2018-03-24T04:17:23.425Z,16.90
2018-03-24T04:19:51.069Z,17.67
2018-03-24T04:22:18.639Z,17.35
2018-03-24T04:24:46.071Z,16.35
2018-03-24T04:27:13.503Z,16.98
2018-03-24T04:29:41.109Z,16.27
2018-03-24T04:32:08.780Z,15.40
2018-03-24T04:34:36.221Z,16.65
2018-03-24T04:37:03.684Z,17.87
2018-03-24T04:39:31.115Z,16.75
2018-03-24T04:41:58.548Z,16.05
2018-03-24T04:44:26.056Z,16.67
2018-03-24T04:46:53.513Z,17.00
2018-03-24T04:49:21.048Z,16.48
2018-03-24T04:51:48.737Z,15.88
2018-03-24T04:54:16.164Z,15.68
2018-03-24T04:56:43.644Z,17.08
2018-03-24T04:59:11.092Z,17.25
2018-03-24T05:01:38.562Z,17.60
2018-03-24T05:04:06.315Z,17.15
2018-03-24T05:06:33.748Z,15.73
2018-03-24T05:09:01.189Z,17.98
2018-03-24T05:11:28.688Z,16.90
2018-03-24T05:13:56.147Z,16.52
2018-03-24T05:16:23.599Z,16.42
2018-03-24T05:18:51.240Z,16.95
2018-03-24T05:21:18.721Z,16.48
2018-03-24T05:23:46.161Z,15.48
2018-03-24T05:26:14.061Z,15.73
2018-03-24T05:28:41.485Z,18.33
2018-03-24T05:31:08.925Z,16.95
2018-03-24T05:33:36.407Z,17.37
2018-03-24T05:36:03.844Z,17.42
2018-03-24T05:38:31.325Z,19.65
2018-03-24T05:40:58.780Z,17.98
2018-03-24T05:43:26.212Z,19.92
2018-03-24T05:45:53.696Z,17.00
2018-03-24T05:48:21.141Z,16.90
2018-03-24T05:50:48.575Z,17.67
2018-03-24T05:53:16.052Z,18.12
2018-03-24T05:55:43.484Z,17.08
2018-03-24T05:58:10.973Z,16.15
2018-03-24T06:00:38.607Z,17.60
2018-03-24T06:03:06.195Z,15.45
2018-03-24T06:05:33.638Z,15.10
2018-03-24T06:08:01.068Z,15.45
2018-03-24T06:10:28.500Z,14.27
2018-03-24T06:12:56.004Z,15.60
2018-03-24T06:15:23.441Z,15.82
2018-03-24T06:17:50.876Z,13.95
2018-03-24T06:20:18.390Z,14.38
2018-03-24T06:22:45.816Z,12.37
2018-03-24T06:25:13.296Z,13.75
2018-03-24T06:27:40.756Z,12.45
2018-03-24T06:30:08.172Z,13.27
2018-03-24T06:32:35.615Z,14.00
2018-03-24T06:35:03.024Z,12.02
2018-03-24T06:37:30.523Z,13.23
2018-03-24T06:39:57.944Z,13.95
2018-03-24T06:42:25.487Z,13.70
2018-03-24T06:44:53.152Z,12.73
2018-03-24T06:47:20.616Z,13.00
2018-03-24T06:49:48.049Z,13.68
2018-03-24T06:52:15.616Z,13.38
2018-03-24T06:54:43.040Z,14.07
2018-03-24T06:57:10.476Z,14.75
2018-03-24T06:59:37.900Z,14.98
2018-03-24T07:02:05.444Z,13.57
2018-03-24T07:04:32.877Z,12.73
2018-03-24T07:07:00.308Z,15.40
2018-03-24T07:09:27.871Z,14.13
2018-03-24T07:11:55.580Z,14.57
2018-03-24T07:14:23.017Z,13.50
2018-03-24T07:16:50.461Z,14.00
2018-03-24T07:19:17.888Z,14.23
2018-03-24T07:21:45.409Z,15.63
2018-03-24T07:24:13.172Z,15.70
2018-03-24T07:26:40.608Z,16.83
2018-03-24T07:29:08.045Z,16.75
2018-03-24T07:31:35.545Z,15.05
2018-03-24T07:34:02.991Z,14.82
2018-03-24T07:36:30.453Z,16.08
2018-03-24T07:38:57.883Z,15.23
2018-03-24T07:41:25.364Z,15.90
2018-03-24T07:43:53.481Z,17.10
2018-03-24T07:46:21.113Z,15.63
2018-03-24T07:48:48.557Z,19.85
2018-03-24T07:51:16.312Z,17.60
2018-03-24T07:53:43.918Z,18.17
2018-03-24T07:56:11.636Z,18.20
2018-03-24T07:58:39.080Z,19.27
2018-03-24T08:01:06.521Z,19.87
2018-03-24T08:03:33.956Z,18.60
2018-03-24T08:06:01.384Z,18.73
2018-03-24T08:08:28.820Z,19.98
2018-03-24T08:10:56.289Z,19.65
2018-03-24T08:13:23.828Z,19.60
2018-03-24T08:15:51.270Z,20.60
2018-03-24T08:18:18.693Z,18.35
2018-03-24T08:20:46.136Z,17.83
2018-03-24T08:23:13.557Z,19.30
2018-03-24T08:25:40.998Z,18.20
2018-03-24T08:28:08.464Z,18.10
2018-03-24T08:30:35.925Z,18.98
2018-03-24T08:33:03.476Z,20.12
2018-03-24T08:35:30.925Z,20.10
2018-03-24T08:37:58.368Z,20.48
2018-03-24T08:40:26.573Z,20.17
2018-03-24T08:42:54.224Z,19.55
2018-03-24T08:45:21.774Z,19.58
2018-03-24T08:47:49.464Z,19.77
2018-03-24T08:50:17.200Z,20.45
2018-03-24T08:52:44.646Z,20.17
2018-03-24T08:55:12.080Z,20.73
2018-03-24T08:57:39.519Z,19.20
2018-03-24T09:00:07.034Z,19.20
2018-03-24T09:02:34.488Z,19.23
2018-03-24T09:05:02.254Z,19.90
2018-03-24T09:07:29.692Z,19.97
2018-03-24T09:09:57.129Z,19.60
2018-03-24T09:12:24.572Z,19.47
2018-03-24T09:14:52.076Z,16.87
2018-03-24T09:17:19.537Z,18.13
2018-03-24T09:19:47.165Z,18.70
2018-03-24T09:22:14.636Z,18.17
2018-03-24T09:24:42.213Z,19.90
2018-03-24T09:27:09.657Z,17.37
2018-03-24T09:29:37.096Z,17.93
2018-03-24T09:32:04.589Z,19.77
2018-03-24T09:34:32.220Z,17.87
2018-03-24T09:36:59.817Z,16.93
2018-03-24T09:39:27.580Z,17.93
2018-03-24T09:41:55.333Z,16.80
2018-03-24T09:44:22.775Z,16.77
2018-03-24T09:46:50.195Z,16.33
2018-03-24T09:49:17.646Z,16.17
2018-03-24T09:51:45.157Z,17.47
2018-03-24T09:54:12.803Z,17.70
2018-03-24T09:56:40.223Z,16.00
2018-03-24T09:59:08.432Z,17.80
2018-03-24T10:01:35.872Z,18.03
2018-03-24T10:04:03.292Z,17.90
2018-03-24T10:06:30.732Z,17.67
2018-03-24T10:08:58.155Z,18.13
2018-03-24T10:11:25.633Z,17.00
2018-03-24T10:13:53.178Z,15.90
2018-03-24T10:16:20.740Z,15.33
2018-03-24T10:18:48.420Z,15.87
2018-03-24T10:24:16.812Z,15.00
2018-03-24T10:26:44.424Z,17.63
2018-03-24T10:29:12.013Z,16.80
2018-03-24T10:31:39.458Z,14.67
2018-03-24T10:34:06.904Z,13.53
2018-03-24T10:36:34.380Z,13.20
2018-03-24T10:39:02.139Z,14.10
2018-03-24T10:41:29.630Z,16.03
2018-03-24T10:43:57.016Z,15.03
2018-03-24T10:46:24.452Z,14.00
2018-03-24T10:48:51.888Z,15.00
2018-03-24T10:51:19.440Z,14.37
2018-03-24T10:53:46.881Z,14.83
2018-03-24T10:56:14.304Z,13.63
2018-03-24T10:58:41.731Z,15.30
2018-03-24T11:01:13.958Z,15.63
2018-03-24T11:03:41.624Z,13.70
2018-03-24T11:06:09.068Z,13.50
2018-03-24T11:08:36.544Z,12.13
2018-03-24T11:11:04.300Z,13.17
2018-03-24T11:13:31.736Z,12.70
2018-03-24T11:15:59.192Z,13.43
2018-03-24T11:18:26.678Z,12.03
2018-03-24T11:20:54.221Z,11.30
2018-03-24T11:23:21.664Z,11.77
2018-03-24T11:25:49.347Z,12.00
2018-03-24T11:28:16.796Z,13.43
2018-03-24T11:30:44.441Z,13.13
2018-03-24T11:33:11.911Z,12.83
2018-03-24T11:35:39.393Z,12.23
2018-03-24T11:38:06.835Z,11.40
2018-03-24T11:40:34.397Z,12.20
2018-03-24T11:43:01.861Z,10.83
2018-03-24T11:45:29.617Z,10.20
2018-03-24T11:47:57.252Z,8.97
2018-03-24T11:50:24.830Z,10.87
2018-03-24T11:52:52.266Z,12.10
2018-03-24T11:55:19.688Z,10.97
2018-03-24T11:57:47.193Z,9.87
2018-03-24T12:00:14.611Z,9.93
2018-03-24T12:02:42.037Z,8.60
2018-03-24T12:05:09.464Z,9.77
2018-03-24T12:07:37.020Z,10.63
2018-03-24T12:10:04.479Z,9.90
2018-03-24T12:12:31.952Z,10.60
2018-03-24T12:14:59.696Z,9.80
2018-03-24T12:17:27.124Z,9.40
2018-03-24T12:19:54.548Z,8.77
2018-03-24T12:22:21.964Z,9.27
2018-03-24T12:24:49.432Z,9.17
2018-03-24T12:27:16.856Z,9.70
2018-03-24T12:29:44.371Z,10.10
2018-03-24T12:32:11.904Z,9.10
2018-03-24T12:34:39.347Z,10.80
2018-03-24T12:37:06.763Z,9.50
2018-03-24T12:39:34.259Z,8.60
2018-03-24T12:42:01.677Z,8.47
2018-03-24T12:44:29.172Z,9.03
2018-03-24T12:46:56.628Z,7.93
2018-03-24T12:49:24.069Z,9.23
2018-03-24T12:51:51.480Z,8.70
2018-03-24T12:54:18.913Z,9.43
2018-03-24T12:56:46.453Z,8.40
2018-03-24T12:59:13.921Z,9.40
2018-03-24T13:01:41.345Z,8.97
2018-03-24T13:04:08.832Z,9.17
2018-03-24T13:06:36.237Z,8.37
2018-03-24T13:09:03.622Z,7.93
2018-03-24T13:11:32.113Z,8.27
2018-03-24T13:13:59.545Z,7.70
2018-03-24T13:16:26.960Z,8.60
2018-03-24T13:18:54.482Z,8.23
2018-03-24T13:21:22.246Z,7.93
2018-03-24T13:23:49.708Z,7.63
2018-03-24T13:26:17.140Z,7.70
2018-03-24T13:28:44.607Z,7.90
2018-03-24T13:31:12.024Z,6.30
2018-03-24T13:33:39.448Z,5.97
2018-03-24T13:36:06.977Z,7.90
2018-03-24T13:38:34.431Z,5.93
2018-03-24T13:41:01.862Z,7.20
2018-03-24T13:43:29.285Z,7.40
2018-03-24T13:45:56.720Z,6.57
2018-03-24T13:48:24.192Z,6.70
2018-03-24T13:50:51.627Z,6.37
2018-03-24T13:53:19.092Z,6.87
2018-03-24T13:55:46.640Z,7.00
2018-03-24T13:58:14.097Z,7.77
2018-03-24T14:00:41.539Z,6.83
2018-03-24T14:03:09.000Z,6.37
2018-03-24T14:05:36.655Z,6.13
2018-03-24T14:08:05.017Z,6.50
2018-03-24T14:10:32.583Z,7.40
2018-03-24T14:13:00.053Z,7.97
2018-03-24T14:15:27.526Z,6.10
2018-03-24T14:17:54.946Z,6.47
2018-03-24T14:20:22.429Z,6.03
2018-03-24T14:22:50.191Z,7.47
2018-03-24T14:25:17.640Z,7.83
2018-03-24T14:27:45.100Z,7.40
2018-03-24T14:30:12.552Z,8.00
2018-03-24T14:32:40.008Z,7.27
2018-03-24T14:35:07.429Z,7.67
2018-03-24T14:37:34.924Z,9.20
2018-03-24T14:40:02.388Z,6.40
2018-03-24T14:42:29.836Z,6.80
2018-03-24T14:44:57.295Z,7.37
2018-03-24T14:47:24.737Z,7.80
2018-03-24T14:49:52.207Z,7.13
2018-03-24T14:52:19.641Z,7.60
2018-03-24T14:54:47.061Z,8.57
2018-03-24T14:57:14.491Z,8.00
2018-03-24T14:59:41.960Z,6.60
2018-03-24T15:02:09.395Z,8.17
2018-03-24T15:04:36.880Z,8.67
2018-03-24T15:07:04.304Z,8.07
2018-03-24T15:09:31.796Z,8.17
2018-03-24T15:11:59.334Z,6.90
2018-03-24T15:14:26.760Z,7.07
2018-03-24T15:16:54.167Z,7.73
2018-03-24T15:19:21.695Z,8.10
2018-03-24T15:21:49.156Z,7.40
2018-03-24T15:24:16.780Z,7.10
2018-03-24T15:26:44.249Z,8.10
2018-03-24T15:29:23.463Z,7.13
2018-03-24T15:32:02.925Z,7.30
2018-03-24T15:34:42.184Z,7.40
2018-03-24T15:37:09.722Z,7.60
2018-03-24T15:39:37.163Z,6.80
2018-03-24T15:42:04.572Z,6.90
2018-03-24T15:44:32.810Z,7.20
2018-03-24T15:47:00.252Z,6.03
2018-03-24T15:49:27.688Z,6.07
2018-03-24T15:51:55.169Z,6.30
2018-03-24T15:54:22.620Z,6.67
2018-03-24T15:56:50.050Z,5.70
2018-03-24T15:59:17.480Z,5.80
2018-03-24T16:01:44.899Z,7.43
2018-03-24T16:04:12.708Z,5.50
2018-03-24T16:06:40.128Z,6.47
2018-03-24T16:09:07.559Z,6.33
2018-03-24T16:11:34.971Z,6.03
2018-03-24T16:14:03.192Z,5.40
2018-03-24T16:16:30.601Z,6.53
2018-03-24T16:18:58.033Z,6.57
2018-03-24T16:21:25.505Z,7.33
2018-03-24T16:23:52.886Z,6.20
2018-03-24T16:26:20.321Z,7.17
2018-03-24T16:28:48.541Z,7.53
2018-03-24T16:31:15.950Z,6.53
2018-03-24T16:33:43.372Z,6.83
2018-03-24T16:36:10.807Z,6.57
2018-03-24T16:38:38.222Z,6.23
2018-03-24T16:41:06.422Z,7.30
2018-03-24T16:43:33.861Z,7.33
2018-03-24T16:46:02.148Z,6.63
2018-03-24T16:48:29.706Z,6.20
2018-03-24T16:50:57.198Z,6.10
2018-03-24T16:53:24.811Z,6.67
2018-03-24T16:55:53.003Z,6.40
2018-03-24T16:58:20.428Z,7.57
2018-03-24T17:00:47.934Z,7.50
2018-03-24T17:03:15.349Z,7.57
2018-03-24T17:05:42.776Z,8.20
2018-03-24T17:08:10.204Z,8.20
2018-03-24T17:10:37.695Z,7.90
2018-03-24T17:13:07.342Z,8.73
2018-03-24T17:15:34.846Z,10.40
2018-03-24T17:18:02.595Z,8.47
2018-03-24T17:20:30.050Z,7.43
2018-03-24T17:22:57.500Z,8.57
2018-03-24T17:25:24.908Z,7.60
2018-03-24T17:27:52.433Z,8.17
2018-03-24T17:30:19.877Z,9.20
2018-03-24T17:32:47.628Z,7.63
2018-03-24T17:35:15.057Z,7.90
2018-03-24T17:37:42.484Z,8.50
2018-03-24T17:40:10.856Z,8.30
2018-03-24T17:42:38.285Z,8.70
2018-03-24T17:45:05.701Z,8.43
2018-03-24T17:47:33.296Z,8.00
2018-03-24T17:50:00.736Z,8.27
2018-03-24T17:52:28.219Z,7.50
2018-03-24T17:54:55.592Z,7.77
2018-03-24T17:57:23.020Z,8.27
2018-03-24T17:59:50.453Z,9.67
2018-03-24T18:02:18.046Z,9.67
2018-03-24T18:04:45.776Z,9.60
2018-03-24T18:07:13.203Z,8.23
2018-03-24T18:09:40.708Z,9.00
2018-03-24T18:12:08.148Z,9.33
2018-03-24T18:14:35.568Z,8.90
2018-03-24T18:17:03.080Z,9.27
2018-03-24T18:19:30.487Z,8.57
2018-03-24T18:21:57.989Z,9.20
2018-03-24T18:24:25.472Z,7.97
2018-03-24T18:26:53.044Z,8.87
2018-03-24T18:29:21.241Z,8.40
2018-03-24T18:31:48.735Z,11.37
2018-03-24T18:34:16.181Z,8.40
2018-03-24T18:36:43.614Z,10.50
2018-03-24T18:39:11.104Z,9.57
2018-03-24T18:41:38.558Z,9.30
2018-03-24T18:44:05.988Z,9.00
2018-03-24T18:46:33.403Z,9.93
2018-03-24T18:49:01.612Z,10.43
2018-03-24T18:51:29.195Z,10.03
2018-03-24T18:53:56.764Z,10.40
2018-03-24T18:56:24.390Z,10.10
2018-03-24T18:58:52.211Z,10.33
2018-03-24T19:01:20.664Z,11.30
2018-03-24T19:03:48.104Z,9.03
2018-03-24T19:06:15.583Z,10.30
2018-03-24T19:08:43.021Z,9.27
2018-03-24T19:11:11.413Z,9.17
2018-03-24T19:13:39.051Z,10.83
2018-03-24T19:16:06.635Z,11.07
2018-03-24T19:18:35.256Z,9.27
2018-03-24T19:21:02.679Z,11.20
2018-03-24T19:23:30.136Z,11.00
2018-03-24T19:25:57.583Z,10.20
2018-03-24T19:28:25.016Z,10.77
2018-03-24T19:30:52.524Z,11.67
2018-03-24T19:33:19.973Z,11.75
2018-03-24T19:35:47.514Z,10.87
2018-03-24T19:38:14.970Z,12.00
2018-03-24T19:40:42.576Z,11.70
2018-03-24T19:43:10.777Z,11.77
2018-03-24T19:45:38.225Z,11.70
2018-03-24T19:48:06.640Z,11.57
2018-03-24T19:50:34.403Z,12.40
2018-03-24T19:53:02.026Z,11.73
2018-03-24T19:55:29.611Z,12.70
2018-03-24T19:57:57.377Z,12.00
2018-03-24T20:00:24.808Z,13.93
2018-03-24T20:02:52.233Z,13.33
2018-03-24T20:05:19.677Z,11.60
2018-03-24T20:07:47.215Z,11.73
2018-03-24T20:10:14.656Z,11.80
2018-03-24T20:12:42.088Z,12.13
2018-03-24T20:15:09.542Z,13.65
2018-03-24T20:17:36.976Z,15.63
2018-03-24T20:20:04.685Z,16.40
2018-03-24T20:22:32.142Z,21.73
2018-03-24T20:24:59.592Z,21.85
2018-03-24T20:27:27.159Z,17.10
2018-03-24T20:29:54.794Z,19.00
2018-03-24T20:32:22.388Z,17.90
2018-03-24T20:34:49.843Z,19.70
2018-03-24T20:37:17.285Z,16.45
2018-03-24T20:39:44.758Z,16.95
2018-03-24T20:42:12.522Z,16.77
2018-03-24T20:44:39.983Z,16.85
2018-03-24T20:47:07.408Z,19.23
2018-03-24T20:49:34.891Z,16.98
2018-03-24T20:52:02.524Z,17.27
2018-03-24T20:54:29.995Z,15.65
2018-03-24T20:56:57.500Z,17.33
2018-03-24T20:59:24.992Z,15.55
2018-03-24T21:01:52.430Z,15.52
2018-03-24T21:04:19.856Z,14.82
2018-03-24T21:06:47.700Z,16.40
2018-03-24T21:09:15.120Z,15.48
2018-03-24T21:11:42.568Z,15.18
2018-03-24T21:14:10.084Z,15.55
2018-03-24T21:16:39.228Z,14.23
2018-03-24T21:19:06.732Z,15.57
2018-03-24T21:21:34.271Z,15.38
2018-03-24T21:24:01.928Z,14.63
2018-03-24T21:26:29.387Z,14.60
2018-03-24T21:28:56.839Z,16.90
2018-03-24T21:31:24.300Z,19.08
2018-03-24T21:33:51.740Z,18.67
2018-03-24T21:36:19.224Z,18.35
2018-03-24T21:38:46.705Z,19.77
2018-03-24T21:41:14.228Z,20.88
2018-03-24T21:43:41.660Z,20.00
2018-03-24T21:46:09.174Z,19.50
2018-03-24T21:48:36.918Z,20.10
2018-03-24T21:51:04.554Z,16.92
2018-03-24T21:53:32.031Z,20.48
2018-03-24T21:55:59.466Z,20.50
2018-03-24T21:58:26.958Z,16.65
2018-03-24T22:00:54.407Z,16.37
2018-03-24T22:03:21.962Z,18.52
2018-03-24T22:05:49.605Z,16.42
2018-03-24T22:08:17.178Z,14.73
2018-03-24T22:10:44.609Z,15.40
2018-03-24T22:13:12.092Z,15.75
2018-03-24T22:15:39.854Z,15.65
2018-03-24T22:18:07.483Z,17.08
2018-03-24T22:20:35.092Z,15.60
2018-03-24T22:23:02.514Z,15.23
2018-03-24T22:25:29.978Z,16.98
2018-03-24T22:27:57.392Z,16.80
2018-03-24T22:30:25.595Z,16.75
2018-03-24T22:32:53.021Z,16.20
2018-03-24T22:35:20.746Z,16.00
2018-03-24T22:37:48.352Z,15.95
2018-03-24T22:40:15.833Z,14.27
2018-03-24T22:42:43.316Z,15.20
2018-03-24T22:45:10.873Z,14.60
2018-03-24T22:47:38.624Z,16.35
2018-03-24T22:50:06.244Z,15.23
2018-03-24T22:52:34.770Z,14.35
2018-03-24T22:55:02.401Z,15.18
2018-03-24T22:57:29.901Z,14.77
2018-03-24T22:59:57.327Z,13.50
2018-03-24T23:02:24.893Z,14.60
2018-03-24T23:04:52.303Z,12.88
2018-03-24T23:07:19.743Z,14.10
2018-03-24T23:09:47.158Z,15.00
2018-03-24T23:12:14.632Z,14.38
2018-03-24T23:14:42.175Z,14.05
2018-03-24T23:17:09.612Z,12.90
2018-03-24T23:19:37.095Z,14.45
2018-03-24T23:22:04.557Z,12.88
2018-03-24T23:24:32.172Z,12.32
2018-03-24T23:26:59.595Z,13.93
2018-03-24T23:29:27.225Z,14.60
2018-03-24T23:31:54.674Z,12.32
2018-03-24T23:34:22.157Z,13.62
2018-03-24T23:36:49.524Z,15.32
2018-03-24T23:39:17.842Z,13.30
2018-03-24T23:41:45.293Z,11.32
2018-03-24T23:44:12.725Z,11.50
2018-03-24T23:46:40.957Z,12.95
2018-03-24T23:49:08.393Z,12.43
2018-03-24T23:51:35.855Z,11.50
2018-03-24T23:54:03.287Z,12.55
2018-03-24T23:56:30.708Z,13.40
2018-03-24T23:58:58.241Z,11.15
